KOLZ

Oelwein Municipal Airport

Oelwein, Iowa, USA
METAR KOLZ 280115Z AUTO 10004KT 10SM CLR 29/17 A2987 RMK AO2
Observed Flight Rules
May-28 @ 01:15 UTC (12 minutes ago) Visual Flight Rules
Wind Visibility Clouds
100° at 4 knots 10 miles
  • Clear skies
Temperatures Readings
Current 29°C / 84°F
Dewpoint 17°C / 63°F
Humidity 48%
Altimeter 29.87" Hg
Pressure 1012 hPa
Elevation 328
METAR KOLZ 280115Z AUTO 10004KT 10SM CLR 29/17 A2987 RMK AO2
Observed Flight Rules
May-28 @ 01:15 UTC
(12 minutes ago)
VFR
Wind Visibility
100° at 4 knots 10 miles
Clouds
  • Clear skies
Temperature Dewpoint
29°C / 84°F 17°C / 63°F
Humidity Altimeter Pressure
48% 29.87" Hg 1012 hPa